RJAA Airport Information

Runway Information
Runway 16R Length 13123 ft width 196 ft
Elevation 130 ft Threshold ft Heading 150
Runway 34L Length 13123 ft Width 196 ft
Elevation 139 ft Threshold 2460 ft Heading 330
Runway 16L Length 8202 ft width 196 ft
Elevation 135 ft Threshold 190 ft Heading 150
Runway 34R Length 8202 ft Width 196 ft
Elevation 141 ft Threshold 190 ft Heading 330
Airport Frequencies
Type APP Name TOKYO APP Frequency 124.4 MHZ
Type ATIS Name ATIS Frequency 128.25 MHZ
Type CLD Name CLNC DEL Frequency 121.9 MHZ
Type CLR Name CLNC DEL Frequency 121.65 MHZ
Type DEP Name TOKYO DEP Frequency 124.2 MHZ
Type GND Name Frequency 121.85 MHZ
Type GND Name GND Frequency 121.95 MHZ
Type RDR Name TOKYO RDR Frequency 120.2 MHZ
Type RMP Name RAMP Frequency 121.6 MHZ
Type RMP Name RAMP Frequency 121.75 MHZ
Type TCA Name TOKYO TCA Frequency 119.45 MHZ
Type TWR Name TWR Frequency 118.2 MHZ
Type TWR Name Frequency 118.35 MHZ
Airport Navaids
Type VOR-DME Name Narita Frequency 117900 KHZ
Type VOR-DME Name Sakura Frequency 112700 KHZ
Airport Weather Information & NOTAM
ADDS - METARS form results

(1651 UTC 19 August 2022)
Data provider http://aviationweather.gov/metar/data/
 
METAR text: RJAA 191630Z AUTO 13002KT 9999 NCD 22/22 Q1004 NOSIG
Conditions at: RJAA (NARITA INTL , JP) observed 1630 UTC 19 August 2022
Temperature: 22.0°C (72°F)
Dewpoint: 22.0°C (72°F) [RH = 100%]
Pressure (altimeter): 29.65 inches Hg (1004.0 mb)
Winds: from the SE (130 degrees) at 2 MPH (2 knots; 1.0 m/s)
Visibility: 6 or more miles (10+ km)
Ceiling: at least 12,000 feet AGL
Clouds: sky clear below 12,000 feet AGL
Weather: no significant weather observed at this time

METAR text: RJAA 191600Z AUTO 14002KT 9999 NCD 22/22 Q1004 NOSIG
Conditions at: RJAA (NARITA INTL , JP) observed 1600 UTC 19 August 2022
Temperature: 22.0°C (72°F)
Dewpoint: 22.0°C (72°F) [RH = 100%]
Pressure (altimeter): 29.65 inches Hg (1004.0 mb)
Winds: from the SE (140 degrees) at 2 MPH (2 knots; 1.0 m/s)
Visibility: 6 or more miles (10+ km)
Ceiling: at least 12,000 feet AGL
Clouds: sky clear below 12,000 feet AGL
Weather: no significant weather observed at this time

Forecast for: RJAA (NARITA INTL , JP)
Text: TAF RJAA 191105Z 1912/2018 15006KT 9999 FEW020
Forecast period: 1200 UTC 19 August 2022 to 1800 UTC 20 August 2022
Forecast type: FROM: standard forecast or significant change
Winds: from the SSE (150 degrees) at 7 MPH (6 knots; 3.1 m/s)
Visibility: 6 or more miles (10+ km)
Ceiling: at least 12,000 feet AGL
Clouds: few clouds at 2000 feet AGL
Weather: no significant weather forecast for this period
Text: TEMPO 2012/2018 4000 -RA BR FEW003 BKN005
Forecast period: 1200 to 1800 UTC 20 August 2022
Forecast type: TEMPORARY: The following changes expected for less than half the time period
Visibility: 2.49 miles (4.01 km)
Ceiling: 500 feet AGL
Clouds: few clouds at 300 feet AGL
broken clouds at 500 feet AGL
Weather: -RA BR  (light rain, mist)